sensor_id;sensor_type;location;lat;lon;timestamp;temperature;humidity
18593;DHT22;9426;54.118;17.948;2023-05-07T00:00:09;2.50;99.90
18593;DHT22;9426;54.118;17.948;2023-05-07T00:05:34;2.40;99.90
18593;DHT22;9426;54.118;17.948;2023-05-07T00:10:57;2.30;99.90
18593;DHT22;9426;54.118;17.948;2023-05-07T00:16:21;2.30;99.90
18593;DHT22;9426;54.118;17.948;2023-05-07T00:21:46;2.20;99.90
18593;DHT22;9426;54.118;17.948;2023-05-07T00:27:09;2.20;99.90
18593;DHT22;9426;54.118;17.948;2023-05-07T00:32:33;2.20;99.90
18593;DHT22;9426;54.118;17.948;2023-05-07T00:37:58;2.20;99.90
18593;DHT22;9426;54.118;17.948;2023-05-07T00:43:22;2.10;99.90
18593;DHT22;9426;54.118;17.948;2023-05-07T00:48:45;2.10;99.90
18593;DHT22;9426;54.118;17.948;2023-05-07T00:54:11;2.00;99.90
18593;DHT22;9426;54.118;17.948;2023-05-07T00:59:34;2.10;99.90
18593;DHT22;9426;54.118;17.948;2023-05-07T01:04:58;2.10;99.90
18593;DHT22;9426;54.118;17.948;2023-05-07T01:10:24;2.10;99.90
18593;DHT22;9426;54.118;17.948;2023-05-07T01:15:49;2.20;99.90
18593;DHT22;9426;54.118;17.948;2023-05-07T01:21:15;2.20;99.90
18593;DHT22;9426;54.118;17.948;2023-05-07T01:26:42;2.20;99.90
18593;DHT22;9426;54.118;17.948;2023-05-07T01:32:09;2.20;99.90
18593;DHT22;9426;54.118;17.948;2023-05-07T01:37:33;2.20;99.90
18593;DHT22;9426;54.118;17.948;2023-05-07T01:42:59;2.20;99.90
18593;DHT22;9426;54.118;17.948;2023-05-07T01:48:24;2.10;99.90
18593;DHT22;9426;54.118;17.948;2023-05-07T01:53:48;2.10;99.90
18593;DHT22;9426;54.118;17.948;2023-05-07T01:59:15;2.10;99.90
18593;DHT22;9426;54.118;17.948;2023-05-07T02:04:39;2.10;99.90
18593;DHT22;9426;54.118;17.948;2023-05-07T02:10:04;2.10;99.90
18593;DHT22;9426;54.118;17.948;2023-05-07T02:15:29;2.00;99.90
18593;DHT22;9426;54.118;17.948;2023-05-07T02:20:55;2.00;99.90
18593;DHT22;9426;54.118;17.948;2023-05-07T02:26:19;2.00;99.90
18593;DHT22;9426;54.118;17.948;2023-05-07T02:31:45;1.90;99.90
18593;DHT22;9426;54.118;17.948;2023-05-07T02:37:09;2.00;99.90
18593;DHT22;9426;54.118;17.948;2023-05-07T02:42:32;2.00;99.90
18593;DHT22;9426;54.118;17.948;2023-05-07T02:47:57;1.90;99.90
18593;DHT22;9426;54.118;17.948;2023-05-07T02:53:21;1.90;99.90
18593;DHT22;9426;54.118;17.948;2023-05-07T02:58:47;1.80;99.90
18593;DHT22;9426;54.118;17.948;2023-05-07T03:04:14;1.90;99.90
18593;DHT22;9426;54.118;17.948;2023-05-07T03:09:38;1.80;99.90
18593;DHT22;9426;54.118;17.948;2023-05-07T03:15:02;1.80;99.90
18593;DHT22;9426;54.118;17.948;2023-05-07T03:20:27;1.90;99.90
18593;DHT22;9426;54.118;17.948;2023-05-07T03:25:52;2.00;99.90
18593;DHT22;9426;54.118;17.948;2023-05-07T03:31:16;2.10;99.90
18593;DHT22;9426;54.118;17.948;2023-05-07T03:36:41;2.20;99.90
18593;DHT22;9426;54.118;17.948;2023-05-07T03:42:06;2.30;99.90
18593;DHT22;9426;54.118;17.948;2023-05-07T03:47:32;2.40;99.90
18593;DHT22;9426;54.118;17.948;2023-05-07T03:52:57;2.60;99.90
18593;DHT22;9426;54.118;17.948;2023-05-07T03:58:22;2.80;99.90
18593;DHT22;9426;54.118;17.948;2023-05-07T04:03:48;2.90;99.90
18593;DHT22;9426;54.118;17.948;2023-05-07T04:09:13;3.20;99.90
18593;DHT22;9426;54.118;17.948;2023-05-07T04:14:39;3.60;99.90
18593;DHT22;9426;54.118;17.948;2023-05-07T04:20:05;3.90;99.90
18593;DHT22;9426;54.118;17.948;2023-05-07T04:25:31;4.30;99.90
18593;DHT22;9426;54.118;17.948;2023-05-07T04:31:02;4.60;99.90
18593;DHT22;9426;54.118;17.948;2023-05-07T04:36:30;4.90;99.90
18593;DHT22;9426;54.118;17.948;2023-05-07T04:42:01;5.20;99.90
18593;DHT22;9426;54.118;17.948;2023-05-07T04:47:26;5.40;99.90
18593;DHT22;9426;54.118;17.948;2023-05-07T04:52:49;5.60;99.90
18593;DHT22;9426;54.118;17.948;2023-05-07T04:58:14;5.90;99.90
18593;DHT22;9426;54.118;17.948;2023-05-07T05:03:41;6.10;99.90
18593;DHT22;9426;54.118;17.948;2023-05-07T05:09:05;6.30;99.90
18593;DHT22;9426;54.118;17.948;2023-05-07T05:14:31;6.50;99.90
18593;DHT22;9426;54.118;17.948;2023-05-07T05:19:55;6.70;99.90
18593;DHT22;9426;54.118;17.948;2023-05-07T05:25:19;6.90;99.90
18593;DHT22;9426;54.118;17.948;2023-05-07T05:30:44;7.10;99.90
18593;DHT22;9426;54.118;17.948;2023-05-07T05:36:09;7.30;99.90
18593;DHT22;9426;54.118;17.948;2023-05-07T05:41:34;7.50;99.90
18593;DHT22;9426;54.118;17.948;2023-05-07T05:47:00;7.70;99.90
18593;DHT22;9426;54.118;17.948;2023-05-07T05:52:24;7.90;99.90
18593;DHT22;9426;54.118;17.948;2023-05-07T05:57:50;8.10;99.90
18593;DHT22;9426;54.118;17.948;2023-05-07T06:03:16;8.40;99.90
18593;DHT22;9426;54.118;17.948;2023-05-07T06:08:40;8.50;99.90
18593;DHT22;9426;54.118;17.948;2023-05-07T06:14:06;8.60;99.90
18593;DHT22;9426;54.118;17.948;2023-05-07T06:19:32;8.80;99.90
18593;DHT22;9426;54.118;17.948;2023-05-07T06:24:56;9.00;99.90
18593;DHT22;9426;54.118;17.948;2023-05-07T06:30:20;9.10;99.90
18593;DHT22;9426;54.118;17.948;2023-05-07T06:35:45;9.30;99.90
18593;DHT22;9426;54.118;17.948;2023-05-07T06:41:09;9.50;99.90
18593;DHT22;9426;54.118;17.948;2023-05-07T06:46:33;9.60;99.90
18593;DHT22;9426;54.118;17.948;2023-05-07T06:52:00;9.80;99.90
18593;DHT22;9426;54.118;17.948;2023-05-07T06:57:24;9.90;99.90
18593;DHT22;9426;54.118;17.948;2023-05-07T07:02:48;10.10;99.90
18593;DHT22;9426;54.118;17.948;2023-05-07T07:08:17;10.30;99.90
18593;DHT22;9426;54.118;17.948;2023-05-07T07:13:40;10.50;99.90
18593;DHT22;9426;54.118;17.948;2023-05-07T07:19:05;10.70;98.20
18593;DHT22;9426;54.118;17.948;2023-05-07T07:24:31;11.00;98.60
18593;DHT22;9426;54.118;17.948;2023-05-07T07:29:59;11.30;95.10
18593;DHT22;9426;54.118;17.948;2023-05-07T07:35:26;11.40;88.10
18593;DHT22;9426;54.118;17.948;2023-05-07T07:40:51;11.50;82.60
18593;DHT22;9426;54.118;17.948;2023-05-07T07:46:15;11.70;80.20
18593;DHT22;9426;54.118;17.948;2023-05-07T07:51:39;11.80;77.80
18593;DHT22;9426;54.118;17.948;2023-05-07T07:57:06;12.10;73.30
18593;DHT22;9426;54.118;17.948;2023-05-07T08:02:30;12.10;71.40
18593;DHT22;9426;54.118;17.948;2023-05-07T08:07:54;12.20;70.00
18593;DHT22;9426;54.118;17.948;2023-05-07T08:13:24;12.30;67.10
18593;DHT22;9426;54.118;17.948;2023-05-07T08:18:48;12.30;68.10
18593;DHT22;9426;54.118;17.948;2023-05-07T08:24:12;12.50;64.80
18593;DHT22;9426;54.118;17.948;2023-05-07T08:29:37;12.40;63.80
18593;DHT22;9426;54.118;17.948;2023-05-07T08:35:02;12.90;58.30
18593;DHT22;9426;54.118;17.948;2023-05-07T08:40:26;12.90;59.70
18593;DHT22;9426;54.118;17.948;2023-05-07T08:45:54;13.00;59.60
18593;DHT22;9426;54.118;17.948;2023-05-07T08:51:22;13.10;59.10
18593;DHT22;9426;54.118;17.948;2023-05-07T08:56:46;13.20;56.40
18593;DHT22;9426;54.118;17.948;2023-05-07T09:02:12;13.30;57.50
18593;DHT22;9426;54.118;17.948;2023-05-07T09:07:36;13.50;57.20
18593;DHT22;9426;54.118;17.948;2023-05-07T09:13:02;13.70;55.20
18593;DHT22;9426;54.118;17.948;2023-05-07T09:18:27;13.80;55.00
18593;DHT22;9426;54.118;17.948;2023-05-07T09:23:53;13.80;54.90
18593;DHT22;9426;54.118;17.948;2023-05-07T09:29:23;13.80;57.00
18593;DHT22;9426;54.118;17.948;2023-05-07T09:34:48;14.10;57.30
18593;DHT22;9426;54.118;17.948;2023-05-07T09:40:22;14.30;57.40
18593;DHT22;9426;54.118;17.948;2023-05-07T09:45:48;14.30;54.60
18593;DHT22;9426;54.118;17.948;2023-05-07T09:51:22;14.50;55.50
18593;DHT22;9426;54.118;17.948;2023-05-07T09:56:50;14.50;57.00
18593;DHT22;9426;54.118;17.948;2023-05-07T10:02:19;14.90;55.80
18593;DHT22;9426;54.118;17.948;2023-05-07T10:07:48;15.00;56.60
18593;DHT22;9426;54.118;17.948;2023-05-07T10:13:13;15.20;55.70
18593;DHT22;9426;54.118;17.948;2023-05-07T10:18:41;15.20;56.00
18593;DHT22;9426;54.118;17.948;2023-05-07T10:24:19;15.40;56.60
18593;DHT22;9426;54.118;17.948;2023-05-07T10:29:50;15.60;55.50
18593;DHT22;9426;54.118;17.948;2023-05-07T10:35:19;15.70;56.30
18593;DHT22;9426;54.118;17.948;2023-05-07T10:40:46;16.10;54.90
18593;DHT22;9426;54.118;17.948;2023-05-07T10:46:14;16.10;55.10
18593;DHT22;9426;54.118;17.948;2023-05-07T10:51:45;16.20;54.20
18593;DHT22;9426;54.118;17.948;2023-05-07T10:57:35;16.60;54.00
18593;DHT22;9426;54.118;17.948;2023-05-07T11:03:09;17.10;51.50
18593;DHT22;9426;54.118;17.948;2023-05-07T11:08:56;17.40;51.90
18593;DHT22;9426;54.118;17.948;2023-05-07T11:14:45;17.80;49.60
18593;DHT22;9426;54.118;17.948;2023-05-07T11:20:50;18.00;48.30
18593;DHT22;9426;54.118;17.948;2023-05-07T11:26:44;18.20;47.70
18593;DHT22;9426;54.118;17.948;2023-05-07T11:32:10;18.50;49.10
18593;DHT22;9426;54.118;17.948;2023-05-07T11:37:40;18.90;45.50
18593;DHT22;9426;54.118;17.948;2023-05-07T11:43:10;19.30;45.60
18593;DHT22;9426;54.118;17.948;2023-05-07T11:48:35;20.50;42.40
18593;DHT22;9426;54.118;17.948;2023-05-07T11:53:59;22.80;40.00
18593;DHT22;9426;54.118;17.948;2023-05-07T11:59:23;24.60;35.70
18593;DHT22;9426;54.118;17.948;2023-05-07T12:04:48;25.80;33.20
18593;DHT22;9426;54.118;17.948;2023-05-07T12:10:12;26.30;33.50
18593;DHT22;9426;54.118;17.948;2023-05-07T12:15:36;26.60;31.80
18593;DHT22;9426;54.118;17.948;2023-05-07T12:21:03;27.10;32.00
18593;DHT22;9426;54.118;17.948;2023-05-07T12:26:27;27.40;31.40
18593;DHT22;9426;54.118;17.948;2023-05-07T12:31:51;27.70;29.90
18593;DHT22;9426;54.118;17.948;2023-05-07T12:37:16;27.40;29.80
18593;DHT22;9426;54.118;17.948;2023-05-07T12:42:40;27.50;29.70
18593;DHT22;9426;54.118;17.948;2023-05-07T12:48:04;27.50;28.60
18593;DHT22;9426;54.118;17.948;2023-05-07T12:53:29;27.40;28.80
18593;DHT22;9426;54.118;17.948;2023-05-07T12:58:57;28.10;29.40
18593;DHT22;9426;54.118;17.948;2023-05-07T13:04:20;28.20;28.40
18593;DHT22;9426;54.118;17.948;2023-05-07T13:09:48;28.20;27.80
18593;DHT22;9426;54.118;17.948;2023-05-07T13:15:12;28.20;28.20
18593;DHT22;9426;54.118;17.948;2023-05-07T13:20:35;28.70;28.90
18593;DHT22;9426;54.118;17.948;2023-05-07T13:26:00;28.90;28.90
18593;DHT22;9426;54.118;17.948;2023-05-07T13:31:25;29.70;27.30
18593;DHT22;9426;54.118;17.948;2023-05-07T13:36:48;29.60;27.30
18593;DHT22;9426;54.118;17.948;2023-05-07T13:42:13;29.00;27.20
18593;DHT22;9426;54.118;17.948;2023-05-07T13:47:36;29.00;27.50
18593;DHT22;9426;54.118;17.948;2023-05-07T13:53:01;28.60;27.60
18593;DHT22;9426;54.118;17.948;2023-05-07T13:58:26;29.40;27.50
18593;DHT22;9426;54.118;17.948;2023-05-07T14:03:50;30.20;26.40
18593;DHT22;9426;54.118;17.948;2023-05-07T14:09:13;29.80;26.50
18593;DHT22;9426;54.118;17.948;2023-05-07T14:14:39;29.20;27.40
18593;DHT22;9426;54.118;17.948;2023-05-07T14:20:04;29.00;27.40
18593;DHT22;9426;54.118;17.948;2023-05-07T14:25:29;29.40;28.00
18593;DHT22;9426;54.118;17.948;2023-05-07T14:30:54;29.40;27.80
18593;DHT22;9426;54.118;17.948;2023-05-07T14:36:18;29.20;27.80
18593;DHT22;9426;54.118;17.948;2023-05-07T14:41:46;29.20;28.20
18593;DHT22;9426;54.118;17.948;2023-05-07T14:47:11;28.90;27.40
18593;DHT22;9426;54.118;17.948;2023-05-07T14:52:35;29.30;27.60
18593;DHT22;9426;54.118;17.948;2023-05-07T14:57:59;29.20;27.50
18593;DHT22;9426;54.118;17.948;2023-05-07T15:03:25;29.20;27.50
18593;DHT22;9426;54.118;17.948;2023-05-07T15:08:49;29.40;27.20
18593;DHT22;9426;54.118;17.948;2023-05-07T15:14:13;29.00;27.40
18593;DHT22;9426;54.118;17.948;2023-05-07T15:19:38;28.70;27.90
18593;DHT22;9426;54.118;17.948;2023-05-07T15:25:03;28.90;28.20
18593;DHT22;9426;54.118;17.948;2023-05-07T15:30:27;28.60;28.00
18593;DHT22;9426;54.118;17.948;2023-05-07T15:35:53;28.60;27.30
18593;DHT22;9426;54.118;17.948;2023-05-07T15:41:21;28.40;27.80
18593;DHT22;9426;54.118;17.948;2023-05-07T15:46:44;28.50;27.40
18593;DHT22;9426;54.118;17.948;2023-05-07T15:52:09;28.40;27.70
18593;DHT22;9426;54.118;17.948;2023-05-07T15:57:35;28.50;27.20
18593;DHT22;9426;54.118;17.948;2023-05-07T16:02:59;28.10;27.50
18593;DHT22;9426;54.118;17.948;2023-05-07T16:08:25;28.10;27.50
18593;DHT22;9426;54.118;17.948;2023-05-07T16:13:48;28.70;27.30
18593;DHT22;9426;54.118;17.948;2023-05-07T16:19:12;27.70;27.60
18593;DHT22;9426;54.118;17.948;2023-05-07T16:24:37;26.90;28.00
18593;DHT22;9426;54.118;17.948;2023-05-07T16:30:01;27.10;27.70
18593;DHT22;9426;54.118;17.948;2023-05-07T16:35:25;27.00;28.10
18593;DHT22;9426;54.118;17.948;2023-05-07T16:40:50;26.10;28.10
18593;DHT22;9426;54.118;17.948;2023-05-07T16:46:14;23.50;30.50
18593;DHT22;9426;54.118;17.948;2023-05-07T16:51:37;20.50;34.90
18593;DHT22;9426;54.118;17.948;2023-05-07T16:57:06;18.60;37.40
18593;DHT22;9426;54.118;17.948;2023-05-07T17:02:29;17.50;39.20
18593;DHT22;9426;54.118;17.948;2023-05-07T17:07:54;16.80;40.50
18593;DHT22;9426;54.118;17.948;2023-05-07T17:13:19;16.20;41.20
18593;DHT22;9426;54.118;17.948;2023-05-07T17:18:43;15.40;43.00
18593;DHT22;9426;54.118;17.948;2023-05-07T17:24:07;14.60;44.50
18593;DHT22;9426;54.118;17.948;2023-05-07T17:29:33;13.80;46.30
18593;DHT22;9426;54.118;17.948;2023-05-07T17:34:57;13.10;47.80
18593;DHT22;9426;54.118;17.948;2023-05-07T17:40:21;12.70;48.90
18593;DHT22;9426;54.118;17.948;2023-05-07T17:45:46;12.40;50.10
18593;DHT22;9426;54.118;17.948;2023-05-07T17:51:10;12.10;50.60
18593;DHT22;9426;54.118;17.948;2023-05-07T17:56:34;11.80;51.40
18593;DHT22;9426;54.118;17.948;2023-05-07T18:01:59;11.60;52.20
18593;DHT22;9426;54.118;17.948;2023-05-07T18:07:23;11.30;52.80
18593;DHT22;9426;54.118;17.948;2023-05-07T18:12:48;11.00;53.50
18593;DHT22;9426;54.118;17.948;2023-05-07T18:18:14;10.70;54.10
18593;DHT22;9426;54.118;17.948;2023-05-07T18:23:37;10.40;55.10
18593;DHT22;9426;54.118;17.948;2023-05-07T18:29:00;10.20;55.60
18593;DHT22;9426;54.118;17.948;2023-05-07T18:34:26;9.90;56.30
18593;DHT22;9426;54.118;17.948;2023-05-07T18:39:49;9.70;57.10
18593;DHT22;9426;54.118;17.948;2023-05-07T18:45:13;9.40;58.00
18593;DHT22;9426;54.118;17.948;2023-05-07T18:50:40;9.20;59.00
18593;DHT22;9426;54.118;17.948;2023-05-07T18:56:05;9.00;59.70
18593;DHT22;9426;54.118;17.948;2023-05-07T19:01:29;8.80;60.30
18593;DHT22;9426;54.118;17.948;2023-05-07T19:06:54;8.70;62.30
18593;DHT22;9426;54.118;17.948;2023-05-07T19:12:18;8.50;62.90
18593;DHT22;9426;54.118;17.948;2023-05-07T19:17:41;8.40;64.00
18593;DHT22;9426;54.118;17.948;2023-05-07T19:23:06;8.20;64.80
18593;DHT22;9426;54.118;17.948;2023-05-07T19:28:31;8.10;65.30
18593;DHT22;9426;54.118;17.948;2023-05-07T19:33:55;8.10;66.10
18593;DHT22;9426;54.118;17.948;2023-05-07T19:39:21;7.90;66.80
18593;DHT22;9426;54.118;17.948;2023-05-07T19:44:45;7.80;67.20
18593;DHT22;9426;54.118;17.948;2023-05-07T19:50:10;7.70;68.00
18593;DHT22;9426;54.118;17.948;2023-05-07T19:55:35;7.60;68.30
18593;DHT22;9426;54.118;17.948;2023-05-07T20:00:59;7.50;69.40
18593;DHT22;9426;54.118;17.948;2023-05-07T20:06:23;7.40;70.50
18593;DHT22;9426;54.118;17.948;2023-05-07T20:11:49;7.40;71.90
18593;DHT22;9426;54.118;17.948;2023-05-07T20:17:13;7.30;73.50
18593;DHT22;9426;54.118;17.948;2023-05-07T20:22:37;7.20;76.00
18593;DHT22;9426;54.118;17.948;2023-05-07T20:28:02;7.20;79.10
18593;DHT22;9426;54.118;17.948;2023-05-07T20:33:26;7.20;82.50
18593;DHT22;9426;54.118;17.948;2023-05-07T20:38:50;7.10;86.20
18593;DHT22;9426;54.118;17.948;2023-05-07T20:44:15;7.00;90.50
18593;DHT22;9426;54.118;17.948;2023-05-07T20:49:40;6.90;93.30
18593;DHT22;9426;54.118;17.948;2023-05-07T20:55:05;6.90;95.90
18593;DHT22;9426;54.118;17.948;2023-05-07T21:00:31;6.80;99.70
18593;DHT22;9426;54.118;17.948;2023-05-07T21:05:55;6.80;99.90
18593;DHT22;9426;54.118;17.948;2023-05-07T21:11:21;6.70;99.90
18593;DHT22;9426;54.118;17.948;2023-05-07T21:16:47;6.70;99.90
18593;DHT22;9426;54.118;17.948;2023-05-07T21:22:11;6.70;99.90
18593;DHT22;9426;54.118;17.948;2023-05-07T21:27:34;6.60;99.90
18593;DHT22;9426;54.118;17.948;2023-05-07T21:33:00;6.50;99.90
18593;DHT22;9426;54.118;17.948;2023-05-07T21:38:24;6.40;99.90
18593;DHT22;9426;54.118;17.948;2023-05-07T21:43:47;6.40;99.90
18593;DHT22;9426;54.118;17.948;2023-05-07T21:49:14;6.40;99.90
18593;DHT22;9426;54.118;17.948;2023-05-07T21:54:38;6.40;99.90
18593;DHT22;9426;54.118;17.948;2023-05-07T22:00:02;6.40;99.90
18593;DHT22;9426;54.118;17.948;2023-05-07T22:05:28;6.30;99.90
18593;DHT22;9426;54.118;17.948;2023-05-07T22:10:52;6.20;99.90
18593;DHT22;9426;54.118;17.948;2023-05-07T22:16:16;6.00;99.90
18593;DHT22;9426;54.118;17.948;2023-05-07T22:21:41;5.90;99.90
18593;DHT22;9426;54.118;17.948;2023-05-07T22:27:05;5.90;99.90
18593;DHT22;9426;54.118;17.948;2023-05-07T22:32:28;5.80;99.90
18593;DHT22;9426;54.118;17.948;2023-05-07T22:37:53;5.80;99.90
18593;DHT22;9426;54.118;17.948;2023-05-07T22:43:17;5.80;99.90
18593;DHT22;9426;54.118;17.948;2023-05-07T22:48:40;5.80;99.90
18593;DHT22;9426;54.118;17.948;2023-05-07T22:54:06;5.70;99.90
18593;DHT22;9426;54.118;17.948;2023-05-07T22:59:30;5.70;99.90
18593;DHT22;9426;54.118;17.948;2023-05-07T23:04:54;5.60;99.90
18593;DHT22;9426;54.118;17.948;2023-05-07T23:10:19;5.50;99.90
18593;DHT22;9426;54.118;17.948;2023-05-07T23:15:43;5.30;99.90
18593;DHT22;9426;54.118;17.948;2023-05-07T23:21:07;5.30;99.90
18593;DHT22;9426;54.118;17.948;2023-05-07T23:26:32;5.20;99.90
18593;DHT22;9426;54.118;17.948;2023-05-07T23:31:56;5.00;99.90
18593;DHT22;9426;54.118;17.948;2023-05-07T23:37:20;4.90;99.90
18593;DHT22;9426;54.118;17.948;2023-05-07T23:42:45;4.90;99.90
18593;DHT22;9426;54.118;17.948;2023-05-07T23:48:09;4.90;99.90
18593;DHT22;9426;54.118;17.948;2023-05-07T23:53:33;4.90;99.90
18593;DHT22;9426;54.118;17.948;2023-05-07T23:58:58;4.90;99.90
